Time;durP1;ratioP1;P1;durP2;ratioP2;P2;SDS_P1;SDS_P2;PMS_P1;PMS_P2;Temp;Humidity;BMP_temperature;BMP_pressure;BME280_temperature;BME280_humidity;BME280_pressure;Samples;Min_cycle;Max_cycle;Signal;HPM_P1;HPM_P2
2023/11/11 00:02:23;;;;;;;2.30;1.20;;;19.10;45.50;;;;;;5051246;28;20194;-55
2023/11/11 00:04:50;;;;;;;3.05;1.42;;;19.10;45.50;;;;;;5050801;28;20632;-52
2023/11/11 00:07:17;;;;;;;3.58;1.40;;;19.10;45.50;;;;;;5051220;28;20287;-55
2023/11/11 00:09:45;;;;;;;4.38;1.33;;;19.10;45.50;;;;;;5050956;28;20314;-52
2023/11/11 00:12:12;;;;;;;2.75;1.45;;;19.00;46.00;;;;;;5051337;28;20194;-57
2023/11/11 00:14:39;;;;;;;2.45;1.00;;;19.10;45.50;;;;;;5050706;28;20247;-55
2023/11/11 00:17:07;;;;;;;1.52;1.02;;;19.10;45.40;;;;;;5051195;28;20234;-57
2023/11/11 00:19:34;;;;;;;2.30;1.27;;;19.10;45.40;;;;;;5050487;28;20215;-56
2023/11/11 00:22:01;;;;;;;1.30;0.93;;;19.10;45.50;;;;;;5050417;28;20192;-55
2023/11/11 00:24:29;;;;;;;3.53;1.20;;;19.00;45.30;;;;;;5050957;28;20317;-56
2023/11/11 00:26:57;;;;;;;2.35;1.10;;;19.00;45.30;;;;;;5050972;28;20196;-55
2023/11/11 00:29:25;;;;;;;3.40;1.30;;;19.00;45.30;;;;;;5050617;28;20220;-54
2023/11/11 00:31:51;;;;;;;2.80;1.20;;;19.00;45.40;;;;;;5050595;28;20192;-51
2023/11/11 00:34:20;;;;;;;1.88;1.10;;;19.00;45.40;;;;;;5050965;28;20226;-55
2023/11/11 00:36:49;;;;;;;2.85;1.13;;;19.00;45.30;;;;;;5049734;28;20188;-56
2023/11/11 00:39:16;;;;;;;2.80;0.90;;;19.00;45.30;;;;;;5051137;28;20251;-55
2023/11/11 00:41:44;;;;;;;4.63;1.30;;;19.00;45.40;;;;;;5054393;28;20280;-55
2023/11/11 00:44:13;;;;;;;3.40;1.17;;;19.00;45.40;;;;;;5054252;28;20239;-54
2023/11/11 00:46:40;;;;;;;2.10;0.88;;;19.00;45.40;;;;;;5054282;28;20188;-54
2023/11/11 00:49:08;;;;;;;4.70;1.02;;;19.00;45.40;;;;;;5054311;28;20215;-54
2023/11/11 00:51:38;;;;;;;5.38;1.25;;;19.00;45.40;;;;;;5054260;28;20274;-53
2023/11/11 00:54:07;;;;;;;3.03;1.00;;;19.00;45.40;;;;;;5054144;28;20219;-57
2023/11/11 00:56:34;;;;;;;3.45;1.10;;;19.00;45.40;;;;;;5054232;28;20249;-52
2023/11/11 00:59:01;;;;;;;2.72;1.23;;;18.90;45.30;;;;;;5054013;28;20219;-53
2023/11/11 01:01:29;;;;;;;3.22;1.17;;;19.00;45.40;;;;;;5053274;28;20187;-54
2023/11/11 01:03:56;;;;;;;2.97;1.30;;;19.00;45.40;;;;;;5054182;28;20318;-55
2023/11/11 01:06:23;;;;;;;3.30;1.00;;;19.00;45.40;;;;;;5053498;28;20187;-53
2023/11/11 01:08:50;;;;;;;2.72;1.20;;;19.00;45.40;;;;;;5054289;28;20290;-54
2023/11/11 01:11:17;;;;;;;2.78;1.17;;;18.90;45.30;;;;;;5053747;28;20654;-53
2023/11/11 01:13:44;;;;;;;3.92;1.20;;;18.90;45.40;;;;;;5053884;28;20230;-57
2023/11/11 01:16:11;;;;;;;4.22;1.10;;;18.90;45.30;;;;;;5053744;28;20214;-51
2023/11/11 01:18:39;;;;;;;4.05;0.98;;;18.90;45.30;;;;;;5053949;28;20188;-54
2023/11/11 01:21:06;;;;;;;2.97;1.05;;;18.90;45.40;;;;;;5053748;28;20188;-55
2023/11/11 01:23:34;;;;;;;3.92;1.10;;;18.90;45.40;;;;;;5053141;28;20188;-55
2023/11/11 01:26:01;;;;;;;3.17;1.20;;;18.90;45.40;;;;;;5054043;28;20235;-59
2023/11/11 01:28:29;;;;;;;3.55;1.25;;;18.90;45.50;;;;;;5054015;28;20205;-54
2023/11/11 01:30:56;;;;;;;5.60;1.30;;;18.90;45.50;;;;;;5053886;28;20302;-50
2023/11/11 01:33:24;;;;;;;2.55;1.10;;;18.90;45.60;;;;;;5053745;28;20270;-54
2023/11/11 01:35:52;;;;;;;3.72;0.90;;;18.90;45.60;;;;;;5053129;28;20242;-54
2023/11/11 01:38:20;;;;;;;1.52;1.00;;;18.90;45.50;;;;;;5054080;28;20274;-53
2023/11/11 01:40:47;;;;;;;2.78;1.10;;;18.90;45.60;;;;;;5054133;28;20579;-54
2023/11/11 01:43:16;;;;;;;3.30;1.35;;;18.90;46.20;;;;;;5053238;28;20291;-54
2023/11/11 01:45:43;;;;;;;3.15;1.15;;;18.90;45.70;;;;;;5053891;28;20242;-52
2023/11/11 01:48:11;;;;;;;1.77;0.93;;;18.90;45.70;;;;;;5053710;28;20195;-56
2023/11/11 01:50:38;;;;;;;3.45;1.10;;;18.80;45.70;;;;;;5053186;28;20796;-50
2023/11/11 01:53:07;;;;;;;2.45;0.98;;;18.80;45.70;;;;;;5053696;28;20648;-54
2023/11/11 01:55:34;;;;;;;4.28;1.20;;;18.80;45.80;;;;;;5054138;28;20272;-53
2023/11/11 01:58:02;;;;;;;3.10;1.17;;;18.80;45.80;;;;;;5053632;28;20647;-52
2023/11/11 02:00:32;;;;;;;2.88;1.33;;;18.80;45.80;;;;;;5054112;28;20302;-55
2023/11/11 02:02:59;;;;;;;3.17;1.17;;;18.80;45.80;;;;;;5053961;28;20198;-55
2023/11/11 02:05:26;;;;;;;3.70;1.27;;;18.80;45.80;;;;;;5052715;28;20334;-56
2023/11/11 02:07:53;;;;;;;3.70;1.02;;;18.80;45.80;;;;;;5053577;28;20651;-54
2023/11/11 02:10:22;;;;;;;4.97;1.08;;;18.80;45.80;;;;;;5053613;28;20654;-59
2023/11/11 02:12:49;;;;;;;3.00;1.20;;;18.80;45.70;;;;;;5053385;28;20281;-54
2023/11/11 02:15:16;;;;;;;3.47;1.30;;;18.80;45.80;;;;;;5053245;28;20223;-56
2023/11/11 02:17:43;;;;;;;3.90;1.45;;;18.80;45.80;;;;;;5053613;28;20271;-54
2023/11/11 02:20:12;;;;;;;2.80;0.82;;;18.80;45.80;;;;;;5053027;28;20302;-54
2023/11/11 02:22:38;;;;;;;3.00;1.20;;;18.80;45.80;;;;;;5053044;28;20188;-54
2023/11/11 02:25:08;;;;;;;4.55;1.20;;;18.80;45.70;;;;;;5051362;28;20232;-55
2023/11/11 02:27:35;;;;;;;3.30;1.10;;;18.80;45.80;;;;;;5052657;28;20732;-54
2023/11/11 02:30:03;;;;;;;4.10;1.10;;;18.80;45.80;;;;;;5052677;28;20258;-52
2023/11/11 02:32:31;;;;;;;2.90;1.13;;;18.80;45.80;;;;;;5052825;28;20787;-55
2023/11/11 02:34:58;;;;;;;4.78;1.27;;;18.80;45.80;;;;;;5052355;28;20219;-56
2023/11/11 02:37:25;;;;;;;3.42;1.48;;;18.80;45.70;;;;;;5053103;28;20190;-52
2023/11/11 02:39:52;;;;;;;4.57;1.20;;;18.80;45.80;;;;;;5052843;28;20308;-55
2023/11/11 02:42:20;;;;;;;3.28;1.20;;;18.80;45.80;;;;;;5052364;28;20291;-54
2023/11/11 02:44:47;;;;;;;3.15;1.00;;;18.70;45.80;;;;;;5052402;28;20289;-51
2023/11/11 02:47:14;;;;;;;4.95;1.40;;;18.80;45.80;;;;;;5052800;28;20675;-52
2023/11/11 02:49:41;;;;;;;3.65;1.33;;;18.70;45.70;;;;;;5051882;28;20219;-55
2023/11/11 02:52:08;;;;;;;4.32;1.20;;;18.70;45.80;;;;;;5052302;28;20709;-56
2023/11/11 02:54:35;;;;;;;3.42;1.52;;;18.70;45.70;;;;;;5052791;28;20215;-54
2023/11/11 02:57:02;;;;;;;3.60;1.20;;;18.70;45.80;;;;;;5052004;28;20906;-55
2023/11/11 02:59:30;;;;;;;4.55;1.85;;;18.70;45.80;;;;;;5052272;28;20211;-56
2023/11/11 03:01:57;;;;;;;2.88;1.08;;;18.70;45.80;;;;;;5052773;28;20192;-56
2023/11/11 03:04:24;;;;;;;3.97;1.20;;;18.70;45.80;;;;;;5052005;28;20318;-53
2023/11/11 03:06:51;;;;;;;3.50;1.17;;;18.70;45.80;;;;;;5052259;28;20661;-52
2023/11/11 03:09:18;;;;;;;5.78;1.50;;;18.70;45.90;;;;;;5052680;28;20302;-56
2023/11/11 03:11:45;;;;;;;3.17;1.38;;;18.70;45.90;;;;;;5051980;28;20183;-54
2023/11/11 03:14:12;;;;;;;4.05;1.38;;;18.70;45.80;;;;;;5051906;28;20211;-54
2023/11/11 03:16:41;;;;;;;4.28;1.30;;;18.70;45.80;;;;;;5051777;28;20287;-55
2023/11/11 03:19:08;;;;;;;4.93;1.27;;;18.70;45.80;;;;;;5051931;28;20254;-56
2023/11/11 03:21:35;;;;;;;3.58;1.20;;;18.70;45.80;;;;;;5051728;28;20669;-53
2023/11/11 03:24:03;;;;;;;2.88;1.35;;;18.70;45.90;;;;;;5051987;28;20291;-54
2023/11/11 03:26:30;;;;;;;5.05;1.38;;;18.70;45.90;;;;;;5052485;28;20216;-55
2023/11/11 03:28:57;;;;;;;3.50;1.35;;;18.70;45.90;;;;;;5051944;28;20187;-54
2023/11/11 03:31:24;;;;;;;3.47;1.45;;;18.70;45.90;;;;;;5052043;28;20219;-52
2023/11/11 03:33:52;;;;;;;6.60;1.30;;;18.70;46.00;;;;;;5052094;28;20184;-52
2023/11/11 03:36:19;;;;;;;2.78;1.20;;;18.60;45.80;;;;;;5051969;28;20192;-55
2023/11/11 03:38:46;;;;;;;3.25;1.17;;;18.70;45.90;;;;;;5051884;28;20190;-55
2023/11/11 03:41:13;;;;;;;4.60;1.85;;;18.70;46.00;;;;;;5052164;28;20563;-53
2023/11/11 03:43:40;;;;;;;3.83;1.20;;;18.70;46.00;;;;;;5051052;28;20191;-56
2023/11/11 03:46:07;;;;;;;3.70;1.40;;;18.60;45.90;;;;;;5051541;28;20678;-55
2023/11/11 03:48:34;;;;;;;3.20;1.33;;;18.60;45.80;;;;;;5052124;28;20195;-53
2023/11/11 03:51:03;;;;;;;4.43;1.30;;;18.60;45.90;;;;;;5051920;28;20215;-55
2023/11/11 03:53:30;;;;;;;5.45;1.23;;;18.60;46.00;;;;;;5051610;28;20192;-56
2023/11/11 03:55:56;;;;;;;3.50;1.25;;;18.60;46.60;;;;;;5051827;28;20298;-53
2023/11/11 03:58:23;;;;;;;4.20;1.30;;;18.60;45.90;;;;;;5051385;28;20196;-52
2023/11/11 04:00:50;;;;;;;3.72;1.60;;;18.60;46.00;;;;;;5051762;28;20701;-56
2023/11/11 04:03:17;;;;;;;3.35;1.70;;;18.60;46.00;;;;;;5051259;28;20610;-56
2023/11/11 04:05:46;;;;;;;2.95;1.35;;;18.60;45.90;;;;;;5051409;28;20231;-55
2023/11/11 04:08:15;;;;;;;4.85;1.90;;;18.60;46.00;;;;;;5051444;28;20621;-57
2023/11/11 04:10:42;;;;;;;2.72;1.15;;;18.60;45.90;;;;;;5051334;28;20721;-54
2023/11/11 04:13:12;;;;;;;5.53;1.50;;;18.60;46.00;;;;;;5051131;28;20188;-50
2023/11/11 04:15:39;;;;;;;4.00;1.30;;;18.60;46.60;;;;;;5053975;28;20215;-51
2023/11/11 04:18:06;;;;;;;4.07;1.30;;;18.60;46.00;;;;;;5055263;28;20279;-56
2023/11/11 04:20:33;;;;;;;5.03;1.67;;;18.60;46.00;;;;;;5055058;28;20250;-57
2023/11/11 04:23:00;;;;;;;5.28;1.23;;;18.60;46.00;;;;;;5055023;28;20726;-54
2023/11/11 04:25:29;;;;;;;4.53;1.50;;;18.60;46.00;;;;;;5056212;28;20231;-57
2023/11/11 04:27:56;;;;;;;4.80;1.55;;;18.60;46.60;;;;;;5055064;28;20188;-53
2023/11/11 04:30:23;;;;;;;4.22;1.27;;;18.60;45.90;;;;;;5055499;28;20220;-50
2023/11/11 04:32:50;;;;;;;3.17;1.42;;;18.60;46.00;;;;;;5055329;28;20270;-57
2023/11/11 04:35:17;;;;;;;5.05;1.20;;;18.60;46.00;;;;;;5054629;28;20709;-54
2023/11/11 04:37:44;;;;;;;4.25;1.52;;;18.60;46.00;;;;;;5054997;28;20274;-51
2023/11/11 04:40:14;;;;;;;5.80;1.23;;;18.60;46.00;;;;;;5055471;28;20219;-54
2023/11/11 04:42:43;;;;;;;2.92;1.20;;;18.50;45.90;;;;;;5055192;28;20192;-54
2023/11/11 04:45:11;;;;;;;3.55;1.30;;;18.50;45.90;;;;;;5054623;28;20265;-57
2023/11/11 04:47:38;;;;;;;5.25;1.40;;;18.50;46.00;;;;;;5054902;28;20274;-54
2023/11/11 04:50:06;;;;;;;4.95;1.42;;;18.50;45.90;;;;;;5054922;28;20585;-54
2023/11/11 04:52:35;;;;;;;5.53;1.73;;;18.50;46.00;;;;;;5055077;28;20286;-52
2023/11/11 04:55:03;;;;;;;7.40;1.50;;;18.50;46.00;;;;;;5054701;28;20697;-52
2023/11/11 04:57:30;;;;;;;3.15;1.58;;;18.50;46.00;;;;;;5054850;28;20184;-56
2023/11/11 04:59:59;;;;;;;6.93;1.52;;;18.50;46.00;;;;;;5054919;28;20212;-51
2023/11/11 05:02:26;;;;;;;6.22;1.60;;;18.50;46.00;;;;;;5055060;28;20188;-53
2023/11/11 05:04:53;;;;;;;7.10;1.40;;;18.50;46.00;;;;;;5054338;28;20239;-55
2023/11/11 05:07:22;;;;;;;3.38;1.48;;;18.50;46.00;;;;;;5054421;28;20223;-52
2023/11/11 05:09:49;;;;;;;5.80;1.40;;;18.50;46.00;;;;;;5054623;28;20723;-52
2023/11/11 05:12:16;;;;;;;6.25;1.33;;;18.50;46.00;;;;;;5054126;28;20188;-53
2023/11/11 05:14:43;;;;;;;3.67;1.23;;;18.50;46.00;;;;;;5054798;28;20306;-53
2023/11/11 05:17:13;;;;;;;3.10;1.35;;;18.50;46.00;;;;;;5054544;28;20198;-58
2023/11/11 05:19:40;;;;;;;5.32;1.70;;;18.50;46.00;;;;;;5054101;28;20211;-55
2023/11/11 05:22:07;;;;;;;5.00;1.40;;;18.50;46.00;;;;;;5054113;28;20675;-51
2023/11/11 05:24:34;;;;;;;7.65;1.98;;;18.50;46.00;;;;;;5054173;28;20219;-55
2023/11/11 05:27:01;;;;;;;5.05;2.10;;;18.50;46.00;;;;;;5053073;28;20217;-54
2023/11/11 05:29:28;;;;;;;8.18;1.75;;;18.50;46.00;;;;;;5054409;28;20319;-52
2023/11/11 05:31:55;;;;;;;6.45;1.70;;;18.50;46.00;;;;;;5054028;28;20188;-50
2023/11/11 05:34:23;;;;;;;3.17;1.23;;;18.50;46.00;;;;;;5053651;28;20608;-53
2023/11/11 05:36:51;;;;;;;5.55;1.67;;;18.50;46.10;;;;;;5054476;28;20282;-58
2023/11/11 05:39:18;;;;;;;2.67;1.30;;;18.50;46.20;;;;;;5054010;28;20188;-53
2023/11/11 05:41:45;;;;;;;4.18;1.30;;;18.50;46.20;;;;;;5053687;28;20188;-53
2023/11/11 05:44:12;;;;;;;6.32;1.60;;;18.50;46.10;;;;;;5053817;28;20610;-56
2023/11/11 05:46:39;;;;;;;4.40;1.50;;;18.60;46.20;;;;;;5054154;28;20215;-54
2023/11/11 05:49:06;;;;;;;5.55;1.70;;;18.60;46.10;;;;;;5053576;28;20262;-56
2023/11/11 05:51:35;;;;;;;5.15;1.75;;;18.70;46.00;;;;;;5054302;28;20192;-54
2023/11/11 05:54:03;;;;;;;2.95;1.60;;;18.80;45.80;;;;;;5054455;28;20188;-55
2023/11/11 05:56:30;;;;;;;3.97;1.77;;;18.90;45.60;;;;;;5054016;28;20270;-55
2023/11/11 05:58:58;;;;;;;5.93;1.58;;;19.00;45.50;;;;;;5054428;28;20195;-55
2023/11/11 06:01:26;;;;;;;4.03;1.45;;;19.10;45.40;;;;;;5054634;28;20255;-57
2023/11/11 06:03:53;;;;;;;7.43;1.65;;;19.20;45.50;;;;;;5054020;28;20227;-56
2023/11/11 06:06:20;;;;;;;5.00;1.30;;;19.30;45.60;;;;;;5054378;28;20235;-59
2023/11/11 06:08:49;;;;;;;5.32;1.60;;;19.30;45.40;;;;;;5054215;28;20212;-52
2023/11/11 06:11:16;;;;;;;2.90;1.20;;;19.40;45.30;;;;;;5053824;28;20302;-55
2023/11/11 06:13:43;;;;;;;5.22;1.48;;;19.50;45.20;;;;;;5054104;28;20207;-56
2023/11/11 06:16:10;;;;;;;4.95;1.50;;;19.50;45.00;;;;;;5054290;28;20333;-56
2023/11/11 06:18:37;;;;;;;5.07;1.50;;;19.60;45.00;;;;;;5053411;28;20198;-55
2023/11/11 06:21:08;;;;;;;5.55;1.33;;;19.60;44.90;;;;;;5054111;28;20220;-57
2023/11/11 06:23:35;;;;;;;4.30;1.38;;;19.70;44.90;;;;;;5053911;28;20624;-59
2023/11/11 06:26:03;;;;;;;5.38;1.23;;;19.80;44.80;;;;;;5053609;28;20246;-54
2023/11/11 06:28:30;;;;;;;4.78;1.33;;;19.80;44.70;;;;;;5053848;28;20270;-59
2023/11/11 06:30:57;;;;;;;4.20;1.17;;;19.80;44.60;;;;;;5053664;28;20588;-56
2023/11/11 06:33:24;;;;;;;4.05;1.30;;;19.90;44.60;;;;;;5053407;28;20191;-59
2023/11/11 06:35:51;;;;;;;4.53;1.50;;;19.90;44.80;;;;;;5053854;28;20219;-56
2023/11/11 06:38:18;;;;;;;6.05;1.83;;;19.90;44.50;;;;;;5052339;28;20188;-58
2023/11/11 06:40:45;;;;;;;6.70;1.80;;;19.90;44.30;;;;;;5053110;28;20215;-55
2023/11/11 06:43:14;;;;;;;3.10;1.33;;;19.90;44.30;;;;;;5053171;28;20194;-56
2023/11/11 06:45:41;;;;;;;4.47;1.80;;;20.00;44.30;;;;;;5053618;28;20258;-56
2023/11/11 06:48:08;;;;;;;5.25;1.42;;;20.00;44.30;;;;;;5053118;28;20195;-60
2023/11/11 06:50:35;;;;;;;3.58;1.30;;;20.00;44.20;;;;;;5053534;28;20216;-55
2023/11/11 06:53:02;;;;;;;4.68;1.45;;;20.10;44.30;;;;;;5053000;28;20554;-54
2023/11/11 06:55:30;;;;;;;3.42;1.42;;;20.10;44.20;;;;;;5052785;28;20766;-55
2023/11/11 06:57:57;;;;;;;5.18;1.33;;;20.10;44.20;;;;;;5053288;28;20196;-55
2023/11/11 07:00:25;;;;;;;5.57;1.83;;;20.20;44.00;;;;;;5052982;28;20651;-56
2023/11/11 07:02:54;;;;;;;6.60;1.52;;;20.20;44.00;;;;;;5052583;28;20199;-55
2023/11/11 07:05:21;;;;;;;4.55;1.60;;;20.30;44.10;;;;;;5052803;28;20231;-57
2023/11/11 07:07:48;;;;;;;4.10;1.38;;;20.30;44.00;;;;;;5052819;28;20322;-54
2023/11/11 07:10:15;;;;;;;5.03;1.52;;;20.30;43.90;;;;;;5052755;28;20639;-56
2023/11/11 07:12:43;;;;;;;4.78;1.42;;;20.30;43.80;;;;;;5052705;28;20281;-56
2023/11/11 07:15:11;;;;;;;5.38;1.77;;;20.40;43.90;;;;;;5052670;28;20211;-58
2023/11/11 07:17:41;;;;;;;3.88;1.38;;;20.40;43.80;;;;;;5052597;28;20226;-56
2023/11/11 07:20:10;;;;;;;3.72;1.23;;;20.40;43.70;;;;;;5052873;28;20226;-58
2023/11/11 07:22:37;;;;;;;4.63;1.52;;;20.40;43.70;;;;;;5052790;28;20187;-57
2023/11/11 07:25:05;;;;;;;3.92;1.35;;;20.40;43.60;;;;;;5052538;28;20219;-57
2023/11/11 07:27:32;;;;;;;7.47;1.75;;;20.40;43.50;;;;;;5052713;28;20223;-58
2023/11/11 07:30:01;;;;;;;3.83;1.48;;;20.40;43.50;;;;;;5052771;28;20227;-57
2023/11/11 07:32:28;;;;;;;5.65;1.83;;;20.50;43.60;;;;;;5052190;28;20192;-59
2023/11/11 07:34:57;;;;;;;3.83;1.40;;;20.50;43.60;;;;;;5052639;28;20219;-58
2023/11/11 07:37:24;;;;;;;4.38;1.67;;;20.50;43.50;;;;;;5052296;28;20650;-55
2023/11/11 07:39:51;;;;;;;2.92;1.00;;;20.50;43.50;;;;;;5052203;28;20220;-59
2023/11/11 07:42:18;;;;;;;5.05;1.48;;;20.50;43.50;;;;;;5052442;28;20270;-55
2023/11/11 07:44:45;;;;;;;3.03;1.25;;;20.50;43.50;;;;;;5052492;28;20215;-59
2023/11/11 07:47:12;;;;;;;3.90;2.03;;;20.50;43.50;;;;;;5052058;28;20219;-59
2023/11/11 07:49:41;;;;;;;4.95;1.52;;;20.50;43.40;;;;;;5051926;28;20215;-59
2023/11/11 07:52:09;;;;;;;4.72;1.20;;;20.50;43.40;;;;;;5052383;28;20192;-57
2023/11/11 07:54:36;;;;;;;4.45;1.60;;;20.50;43.40;;;;;;5052004;28;20223;-59
2023/11/11 07:57:06;;;;;;;4.32;1.30;;;20.50;43.40;;;;;;5052268;28;20184;-59
2023/11/11 07:59:33;;;;;;;2.83;1.13;;;20.50;43.40;;;;;;5052428;28;20241;-58
2023/11/11 08:02:00;;;;;;;6.47;1.90;;;20.50;43.40;;;;;;5051994;28;20266;-57
2023/11/11 08:04:27;;;;;;;3.38;1.50;;;20.60;43.50;;;;;;5051852;28;20245;-58
2023/11/11 08:06:53;;;;;;;4.75;1.73;;;20.60;43.50;;;;;;5052419;28;20227;-58
2023/11/11 08:09:22;;;;;;;4.60;1.65;;;20.50;43.40;;;;;;5051520;28;20188;-53
2023/11/11 08:11:49;;;;;;;4.47;1.58;;;20.50;43.40;;;;;;5052170;28;20183;-59
2023/11/11 08:14:16;;;;;;;6.07;1.45;;;20.60;43.50;;;;;;5052284;28;20615;-57
2023/11/11 08:16:43;;;;;;;3.20;1.30;;;20.60;43.50;;;;;;5051851;28;20195;-57
2023/11/11 08:19:10;;;;;;;3.60;1.52;;;20.60;43.40;;;;;;5052175;28;20199;-57
2023/11/11 08:21:38;;;;;;;3.05;1.50;;;20.60;43.30;;;;;;5051746;28;20712;-58
2023/11/11 08:24:06;;;;;;;3.58;1.38;;;20.60;43.30;;;;;;5051769;28;20200;-53
2023/11/11 08:26:34;;;;;;;5.03;1.45;;;20.60;43.30;;;;;;5052090;28;20246;-59
2023/11/11 08:29:01;;;;;;;3.53;1.30;;;20.60;43.30;;;;;;5052014;28;20291;-55
2023/11/11 08:31:28;;;;;;;3.80;1.60;;;20.60;43.30;;;;;;5051415;28;20212;-59
2023/11/11 08:33:55;;;;;;;1.88;1.05;;;20.60;43.30;;;;;;5052013;28;20282;-59
2023/11/11 08:36:24;;;;;;;4.10;1.60;;;20.70;43.30;;;;;;5052071;28;20234;-59
2023/11/11 08:38:52;;;;;;;3.97;1.55;;;20.60;43.20;;;;;;5051283;28;20201;-59
2023/11/11 08:41:19;;;;;;;5.38;1.60;;;20.60;43.20;;;;;;5052001;28;20302;-56
2023/11/11 08:43:47;;;;;;;4.05;1.42;;;20.60;43.20;;;;;;5051973;28;20183;-59
2023/11/11 08:46:14;;;;;;;6.05;1.60;;;20.60;43.20;;;;;;5051640;28;20226;-59
2023/11/11 08:48:41;;;;;;;4.25;1.90;;;20.70;43.30;;;;;;5051931;28;20184;-59
2023/11/11 08:51:08;;;;;;;4.03;1.55;;;20.70;43.30;;;;;;5051682;28;20215;-59
2023/11/11 08:53:36;;;;;;;5.43;1.90;;;20.70;43.30;;;;;;5051341;28;20227;-59
2023/11/11 08:56:03;;;;;;;3.65;1.50;;;20.70;43.30;;;;;;5051488;28;20222;-59
2023/11/11 08:58:30;;;;;;;2.67;1.20;;;20.70;43.30;;;;;;5051779;28;20187;-58
2023/11/11 09:00:59;;;;;;;4.97;1.45;;;20.70;43.30;;;;;;5052658;28;20219;-59
2023/11/11 09:03:28;;;;;;;6.53;1.52;;;20.70;43.20;;;;;;5055182;28;20232;-55
2023/11/11 09:05:55;;;;;;;3.00;1.40;;;20.70;43.20;;;;;;5055675;28;20219;-57
2023/11/11 09:08:23;;;;;;;5.47;1.52;;;20.70;43.20;;;;;;5054988;28;20249;-59
2023/11/11 09:10:50;;;;;;;4.35;1.67;;;20.70;43.20;;;;;;5055390;28;20216;-57
2023/11/11 09:13:20;;;;;;;5.28;1.60;;;20.70;43.20;;;;;;5055270;28;20195;-56
2023/11/11 09:15:47;;;;;;;4.20;1.30;;;20.70;43.20;;;;;;5054973;28;20223;-56
2023/11/11 09:18:16;;;;;;;3.80;1.60;;;20.70;43.20;;;;;;5055223;28;20223;-58
2023/11/11 09:20:43;;;;;;;3.30;1.70;;;20.70;43.20;;;;;;5054987;28;20708;-58
2023/11/11 09:23:10;;;;;;;4.40;1.60;;;20.70;43.20;;;;;;5054417;28;20184;-56
2023/11/11 09:25:38;;;;;;;4.50;1.38;;;20.70;43.20;;;;;;5054983;28;20215;-57
2023/11/11 09:28:07;;;;;;;4.07;1.60;;;20.70;43.20;;;;;;5054907;28;20216;-57
2023/11/11 09:30:33;;;;;;;5.63;1.60;;;20.70;43.20;;;;;;5054431;28;20223;-58
2023/11/11 09:33:02;;;;;;;5.57;1.30;;;20.70;43.30;;;;;;5054836;28;20219;-58
2023/11/11 09:35:30;;;;;;;4.53;1.50;;;20.70;43.30;;;;;;5054638;28;20589;-58
2023/11/11 09:37:57;;;;;;;5.13;1.70;;;20.70;43.30;;;;;;5054185;28;20279;-58
2023/11/11 09:40:24;;;;;;;5.15;1.58;;;20.70;43.30;;;;;;5054478;28;20709;-59
2023/11/11 09:42:51;;;;;;;4.25;1.30;;;20.70;43.30;;;;;;5054399;28;20638;-56
2023/11/11 09:45:19;;;;;;;5.03;1.60;;;20.70;44.00;;;;;;5054347;28;20215;-58
2023/11/11 09:47:51;;;;;;;4.32;1.45;;;20.70;43.30;;;;;;5054786;28;20231;-58
2023/11/11 09:50:23;;;;;;;5.13;1.58;;;20.70;43.30;;;;;;5054619;28;20303;-58
2023/11/11 09:52:53;;;;;;;4.53;1.40;;;20.70;43.30;;;;;;5054157;28;20267;-59
2023/11/11 09:55:21;;;;;;;4.65;1.42;;;20.70;43.30;;;;;;5054447;28;20629;-58
2023/11/11 09:57:49;;;;;;;3.75;1.50;;;20.70;43.30;;;;;;5054460;28;20267;-56
2023/11/11 10:00:17;;;;;;;3.53;1.52;;;20.70;43.30;;;;;;5054029;28;20220;-56
2023/11/11 10:02:44;;;;;;;6.00;1.35;;;20.70;43.30;;;;;;5054347;28;20237;-57
2023/11/11 10:05:12;;;;;;;3.30;1.45;;;20.70;43.30;;;;;;5054031;28;20327;-58
2023/11/11 10:07:40;;;;;;;4.97;1.60;;;20.70;43.30;;;;;;5053680;28;20678;-57
2023/11/11 10:10:09;;;;;;;3.00;1.38;;;20.70;43.30;;;;;;5054186;28;20302;-56
2023/11/11 10:12:39;;;;;;;4.28;1.40;;;20.70;43.30;;;;;;5054016;28;20198;-58
2023/11/11 10:15:08;;;;;;;4.43;1.33;;;20.70;43.20;;;;;;5053768;28;20314;-57
2023/11/11 10:17:38;;;;;;;5.13;1.38;;;20.70;43.20;;;;;;5053756;28;20192;-57
2023/11/11 10:20:10;;;;;;;4.30;1.50;;;20.70;43.30;;;;;;5053990;28;20219;-59
2023/11/11 10:22:43;;;;;;;4.82;1.20;;;20.70;43.30;;;;;;5053511;28;20188;-60
2023/11/11 10:25:14;;;;;;;4.95;1.25;;;20.60;43.20;;;;;;5053949;28;20218;-57
2023/11/11 10:27:47;;;;;;;3.80;1.02;;;20.70;43.30;;;;;;5053804;28;20215;-57
2023/11/11 10:30:19;;;;;;;2.63;1.15;;;20.70;43.30;;;;;;5053461;28;20246;-58
2023/11/11 10:32:48;;;;;;;4.40;1.35;;;20.70;43.30;;;;;;5053380;28;20192;-58
2023/11/11 10:35:16;;;;;;;4.72;1.30;;;20.70;43.30;;;;;;5053723;28;20216;-58
2023/11/11 10:37:44;;;;;;;4.40;1.10;;;20.70;43.90;;;;;;5053263;28;20194;-58
2023/11/11 10:40:14;;;;;;;2.53;1.42;;;20.70;43.30;;;;;;5053633;28;20219;-57
2023/11/11 10:42:43;;;;;;;6.88;1.42;;;20.70;43.30;;;;;;5053508;28;20192;-56
2023/11/11 10:45:12;;;;;;;4.80;1.50;;;20.70;43.30;;;;;;5053167;28;20307;-59
2023/11/11 10:47:40;;;;;;;2.78;1.33;;;20.70;43.30;;;;;;5053086;28;20216;-59
2023/11/11 10:50:08;;;;;;;3.50;1.30;;;20.70;43.30;;;;;;5053461;28;20298;-56
2023/11/11 10:52:37;;;;;;;3.05;1.23;;;20.70;43.30;;;;;;5052937;28;20190;-58
2023/11/11 10:55:07;;;;;;;4.10;1.38;;;20.70;43.30;;;;;;5052973;28;20302;-56
2023/11/11 10:57:36;;;;;;;4.70;1.35;;;20.60;43.20;;;;;;5052999;28;20188;-59
2023/11/11 11:00:04;;;;;;;2.97;1.20;;;20.70;43.30;;;;;;5052936;28;20216;-55
2023/11/11 11:02:32;;;;;;;3.85;1.30;;;20.60;43.20;;;;;;5052774;28;20649;-58
2023/11/11 11:05:06;;;;;;;3.10;1.23;;;20.60;43.20;;;;;;5052742;28;20289;-58
2023/11/11 11:07:37;;;;;;;2.78;1.20;;;20.60;43.30;;;;;;5052653;28;20219;-58
2023/11/11 11:10:10;;;;;;;6.47;1.10;;;20.60;43.20;;;;;;5053000;28;20211;-56
2023/11/11 11:12:47;;;;;;;3.15;1.13;;;20.60;43.20;;;;;;5052846;28;20249;-58
2023/11/11 11:15:14;;;;;;;3.45;1.20;;;20.60;43.30;;;;;;5052938;28;20210;-56
2023/11/11 11:17:43;;;;;;;3.65;1.23;;;20.60;43.40;;;;;;5052957;28;20188;-56
2023/11/11 11:20:14;;;;;;;4.03;1.40;;;20.70;43.50;;;;;;5052211;28;20727;-59
2023/11/11 11:22:42;;;;;;;2.58;0.82;;;20.60;43.40;;;;;;5052780;28;20187;-55
2023/11/11 11:25:41;;;;;;;2.08;0.90;;;20.60;43.40;;;;;;5052308;28;20226;-58
2023/11/11 11:28:24;;;;;;;2.45;1.25;;;20.60;43.40;;;;;;5018631;28;20705;-59
2023/11/11 11:30:54;;;;;;;3.53;1.13;;;20.60;43.50;;;;;;5052461;28;20746;-56
2023/11/11 11:33:22;;;;;;;4.97;1.20;;;20.60;43.40;;;;;;5052613;28;20198;-56
2023/11/11 11:35:52;;;;;;;3.13;1.40;;;20.60;43.40;;;;;;5052018;28;20705;-54
2023/11/11 11:38:26;;;;;;;2.45;1.10;;;20.60;43.40;;;;;;5052489;28;20223;-56
2023/11/11 11:40:57;;;;;;;4.88;1.05;;;20.60;43.40;;;;;;5052596;28;20261;-56
2023/11/11 11:43:34;;;;;;;4.68;1.30;;;20.70;43.50;;;;;;5052123;28;20194;-58
2023/11/11 11:46:02;;;;;;;4.13;1.02;;;20.60;43.40;;;;;;5052322;28;20337;-56
2023/11/11 11:48:30;;;;;;;4.45;1.30;;;20.60;43.40;;;;;;5052398;28;20298;-60
2023/11/11 11:51:12;;;;;;;2.70;1.20;;;20.60;43.40;;;;;;5052107;28;20298;-58
2023/11/11 11:53:41;;;;;;;4.20;1.23;;;20.60;43.50;;;;;;5052321;28;20257;-57
2023/11/11 11:56:10;;;;;;;3.67;1.08;;;20.70;43.50;;;;;;5052286;28;20223;-58
2023/11/11 11:58:46;;;;;;;3.03;1.35;;;20.70;43.50;;;;;;5051968;28;20191;-57
2023/11/11 12:01:25;;;;;;;4.75;1.40;;;20.60;43.50;;;;;;5052042;28;20207;-56
2023/11/11 12:03:53;;;;;;;5.20;1.20;;;20.60;43.50;;;;;;5052078;28;20238;-57
2023/11/11 12:06:20;;;;;;;3.10;1.42;;;20.60;43.50;;;;;;5051771;28;20713;-55
2023/11/11 12:08:49;;;;;;;2.53;1.30;;;20.60;43.50;;;;;;5051804;28;20231;-58
2023/11/11 12:11:23;;;;;;;4.43;1.30;;;20.60;43.50;;;;;;5051870;28;20302;-58
2023/11/11 12:13:52;;;;;;;3.78;1.20;;;20.60;43.50;;;;;;5051837;28;20183;-56
2023/11/11 12:16:19;;;;;;;1.92;0.82;;;20.60;43.50;;;;;;5051956;28;20310;-56
2023/11/11 12:18:47;;;;;;;4.15;1.10;;;20.60;43.50;;;;;;5051858;28;20198;-57
2023/11/11 12:21:17;;;;;;;3.25;1.40;;;20.60;43.50;;;;;;5051553;28;20226;-56
2023/11/11 12:23:44;;;;;;;2.38;1.30;;;20.70;43.60;;;;;;5052134;28;20187;-56
2023/11/11 12:26:13;;;;;;;3.75;1.33;;;20.60;43.50;;;;;;5051988;28;20219;-55
2023/11/11 12:28:42;;;;;;;3.03;1.30;;;20.60;43.50;;;;;;5051382;28;20719;-56
2023/11/11 12:31:10;;;;;;;2.42;1.10;;;20.60;44.10;;;;;;5051719;28;20728;-58
2023/11/11 12:33:37;;;;;;;3.35;1.20;;;20.60;43.50;;;;;;5052081;28;20211;-58
2023/11/11 12:36:05;;;;;;;2.08;1.05;;;20.70;43.50;;;;;;5053128;28;20565;-59
2023/11/11 12:38:32;;;;;;;2.08;0.98;;;20.60;43.50;;;;;;5055933;28;20236;-58
2023/11/11 12:41:00;;;;;;;3.00;1.10;;;20.60;43.50;;;;;;5055880;28;20226;-55
2023/11/11 12:43:28;;;;;;;4.57;1.35;;;20.70;43.50;;;;;;5055399;28;20559;-59
2023/11/11 12:45:55;;;;;;;1.42;1.02;;;20.70;43.50;;;;;;5055907;28;20682;-59
2023/11/11 12:48:23;;;;;;;1.75;0.93;;;20.70;43.50;;;;;;5055326;28;20581;-61
2023/11/11 12:50:53;;;;;;;3.15;1.30;;;20.60;43.50;;;;;;5055081;28;20296;-57
2023/11/11 12:53:20;;;;;;;2.30;1.20;;;20.60;43.50;;;;;;5055269;28;20556;-55